createdAt,value
2022-11-30T00:00:40.702Z,16.00
2022-11-30T00:01:40.697Z,16.40
2022-11-30T00:02:40.798Z,16.80
2022-11-30T00:03:40.685Z,16.30
2022-11-30T00:04:40.678Z,16.10
2022-11-30T00:05:40.664Z,16.00
2022-11-30T00:06:40.654Z,15.90
2022-11-30T00:07:40.735Z,16.10
2022-11-30T00:08:40.663Z,16.30
2022-11-30T00:09:40.631Z,16.80
2022-11-30T00:10:40.631Z,16.50
2022-11-30T00:11:40.630Z,15.40
2022-11-30T00:12:40.637Z,16.90
2022-11-30T00:13:40.691Z,16.60
2022-11-30T00:14:40.596Z,17.50
2022-11-30T00:15:40.587Z,16.70
2022-11-30T00:16:40.607Z,17.50
2022-11-30T00:17:40.601Z,19.10
2022-11-30T00:18:40.568Z,17.10
2022-11-30T00:19:40.575Z,18.80
2022-11-30T00:20:40.557Z,17.70
2022-11-30T00:21:40.550Z,16.80
2022-11-30T00:22:40.560Z,19.30
2022-11-30T00:23:40.539Z,20.00
2022-11-30T00:24:40.527Z,21.40
2022-11-30T00:25:40.513Z,19.10
2022-11-30T00:26:40.511Z,20.90
2022-11-30T00:27:40.531Z,20.00
2022-11-30T00:28:40.504Z,21.50
2022-11-30T00:29:40.492Z,22.30
2022-11-30T00:30:40.505Z,20.70
2022-11-30T00:31:41.470Z,20.90
2022-11-30T00:32:40.493Z,19.50
2022-11-30T00:33:40.456Z,21.60
2022-11-30T00:35:13.261Z,21.10
2022-11-30T00:35:40.461Z,21.60
2022-11-30T00:36:40.438Z,20.30
2022-11-30T00:37:40.452Z,22.70
2022-11-30T00:38:40.429Z,21.70
2022-11-30T00:39:40.417Z,24.50
2022-11-30T00:40:40.446Z,22.30
2022-11-30T00:41:40.399Z,22.40
2022-11-30T00:42:40.421Z,22.60
2022-11-30T00:43:40.400Z,24.00
2022-11-30T00:44:40.395Z,22.10
2022-11-30T00:45:40.437Z,22.90
2022-11-30T00:46:40.364Z,25.80
2022-11-30T00:47:40.386Z,23.10
2022-11-30T00:48:40.348Z,23.40
2022-11-30T00:49:40.345Z,22.00
2022-11-30T00:50:40.339Z,22.80
2022-11-30T00:51:40.325Z,21.90
2022-11-30T00:52:40.346Z,21.90
2022-11-30T00:53:40.318Z,21.80
2022-11-30T00:54:40.300Z,22.80
2022-11-30T00:55:40.304Z,21.80
2022-11-30T00:56:40.299Z,21.90
2022-11-30T00:57:40.318Z,22.30
2022-11-30T00:58:40.284Z,22.00
2022-11-30T00:59:40.262Z,22.60
2022-11-30T01:00:40.263Z,21.90
2022-11-30T01:01:40.313Z,22.70
2022-11-30T01:02:40.320Z,23.00
2022-11-30T01:03:40.240Z,25.00
2022-11-30T01:04:40.231Z,22.40
2022-11-30T01:05:40.229Z,22.20
2022-11-30T01:06:40.213Z,21.00
2022-11-30T01:07:40.268Z,22.60
2022-11-30T01:08:40.223Z,22.40
2022-11-30T01:09:40.198Z,22.80
2022-11-30T01:10:40.193Z,22.90
2022-11-30T01:11:40.171Z,22.00
2022-11-30T01:12:40.181Z,23.50
2022-11-30T01:13:40.190Z,21.60
2022-11-30T01:14:40.159Z,21.40
2022-11-30T01:15:40.201Z,23.30
2022-11-30T01:16:40.137Z,22.80
2022-11-30T01:17:40.133Z,22.70
2022-11-30T01:18:40.151Z,23.40
2022-11-30T01:19:40.130Z,23.10
2022-11-30T01:20:40.106Z,24.50
2022-11-30T01:21:40.105Z,21.50
2022-11-30T01:22:40.091Z,25.50
2022-11-30T01:23:40.113Z,28.60
2022-11-30T01:24:40.086Z,26.80
2022-11-30T01:25:40.070Z,27.50
2022-11-30T01:26:40.064Z,25.10
2022-11-30T01:27:40.049Z,26.30
2022-11-30T01:28:40.074Z,27.10
2022-11-30T01:29:40.045Z,28.00
2022-11-30T01:30:40.086Z,29.50
2022-11-30T01:31:40.023Z,29.60
2022-11-30T01:32:40.021Z,26.90
2022-11-30T01:33:40.046Z,26.10
2022-11-30T01:34:39.997Z,30.10
2022-11-30T01:35:40.003Z,28.10
2022-11-30T01:36:39.987Z,28.80
2022-11-30T01:37:39.991Z,29.50
2022-11-30T01:38:40.035Z,28.00
2022-11-30T01:39:39.963Z,27.70
2022-11-30T01:40:39.956Z,29.40
2022-11-30T01:41:40.004Z,28.80
2022-11-30T01:42:39.934Z,26.80
2022-11-30T01:43:39.970Z,26.40
2022-11-30T01:44:39.921Z,26.90
2022-11-30T01:45:39.928Z,28.30
2022-11-30T01:46:39.908Z,27.40
2022-11-30T01:47:39.900Z,30.30
2022-11-30T01:48:39.933Z,29.60
2022-11-30T01:49:39.885Z,29.20
2022-11-30T01:50:39.870Z,27.20
2022-11-30T01:51:39.872Z,30.10
2022-11-30T01:52:39.872Z,30.30
2022-11-30T01:53:39.880Z,30.80
2022-11-30T01:54:39.858Z,32.30
2022-11-30T01:55:39.839Z,31.80
2022-11-30T01:56:39.834Z,29.40
2022-11-30T01:57:39.821Z,28.90
2022-11-30T01:58:39.849Z,31.20
2022-11-30T01:59:39.818Z,31.30
2022-11-30T02:00:39.800Z,30.50
2022-11-30T02:01:39.822Z,30.60
2022-11-30T02:02:39.881Z,30.30
2022-11-30T02:03:39.817Z,26.60
2022-11-30T02:04:39.768Z,28.30
2022-11-30T02:05:39.771Z,26.90
2022-11-30T02:06:39.770Z,27.10
2022-11-30T02:07:39.877Z,29.10
2022-11-30T02:08:39.843Z,31.20
2022-11-30T02:09:39.736Z,25.50
2022-11-30T02:10:39.736Z,27.70
2022-11-30T02:11:39.718Z,27.20
2022-11-30T02:12:39.704Z,30.60
2022-11-30T02:13:39.724Z,30.60
2022-11-30T02:14:39.694Z,27.80
2022-11-30T02:15:39.774Z,28.00
2022-11-30T02:16:39.679Z,30.10
2022-11-30T02:17:39.681Z,29.40
2022-11-30T02:18:39.692Z,27.80
2022-11-30T02:19:39.663Z,29.30
2022-11-30T02:20:39.659Z,26.40
2022-11-30T02:21:39.647Z,28.10
2022-11-30T02:22:39.644Z,28.20
2022-11-30T02:23:41.307Z,28.70
2022-11-30T02:24:40.614Z,29.60
2022-11-30T02:25:39.606Z,28.00
2022-11-30T02:26:39.604Z,30.30
2022-11-30T02:27:39.598Z,25.90
2022-11-30T02:28:39.617Z,26.90
2022-11-30T02:29:39.578Z,28.60
2022-11-30T02:30:39.644Z,29.90
2022-11-30T02:31:39.565Z,26.90
2022-11-30T02:32:39.559Z,28.90
2022-11-30T02:33:39.629Z,26.40
2022-11-30T02:34:39.544Z,31.30
2022-11-30T02:35:39.533Z,28.80
2022-11-30T02:36:39.528Z,29.50
2022-11-30T02:37:39.516Z,28.40
2022-11-30T02:38:39.513Z,26.80
2022-11-30T02:39:39.523Z,26.00
2022-11-30T02:40:39.505Z,25.50
2022-11-30T02:41:39.495Z,24.00
2022-11-30T02:42:39.476Z,26.80
2022-11-30T02:43:39.472Z,24.80
2022-11-30T02:44:39.515Z,26.00
2022-11-30T02:45:39.462Z,28.00
2022-11-30T02:46:39.477Z,28.20
2022-11-30T02:47:39.448Z,25.80
2022-11-30T02:48:39.431Z,25.80
2022-11-30T02:49:39.460Z,25.80
2022-11-30T02:50:39.424Z,25.60
2022-11-30T02:51:39.409Z,24.90
2022-11-30T02:52:39.397Z,23.50
2022-11-30T02:53:39.390Z,24.90
2022-11-30T02:54:39.415Z,23.50
2022-11-30T02:55:39.387Z,23.60
2022-11-30T02:56:39.372Z,22.20
2022-11-30T02:57:39.362Z,25.80
2022-11-30T02:58:39.356Z,25.30
2022-11-30T02:59:39.372Z,25.70
2022-11-30T03:00:39.341Z,26.40
2022-11-30T03:01:39.369Z,25.10
2022-11-30T03:02:39.369Z,26.10
2022-11-30T03:03:39.311Z,25.20
2022-11-30T03:04:39.341Z,25.90
2022-11-30T03:05:39.296Z,26.00
2022-11-30T03:06:39.287Z,25.80
2022-11-30T03:07:39.330Z,26.70
2022-11-30T03:08:39.281Z,26.50
2022-11-30T03:09:39.327Z,28.10
2022-11-30T03:10:39.265Z,24.40
2022-11-30T03:11:39.249Z,25.20
2022-11-30T03:12:39.246Z,24.90
2022-11-30T03:13:39.236Z,25.90
2022-11-30T03:14:39.260Z,24.10
2022-11-30T03:15:39.311Z,25.10
2022-11-30T03:16:39.224Z,24.80
2022-11-30T03:17:39.222Z,26.20
2022-11-30T03:18:39.196Z,27.00
2022-11-30T03:19:39.199Z,26.30
2022-11-30T03:20:39.204Z,25.90
2022-11-30T03:21:39.169Z,26.50
2022-11-30T03:22:39.163Z,29.20
2022-11-30T03:23:39.157Z,28.80
2022-11-30T03:24:39.152Z,28.10
2022-11-30T03:25:39.180Z,27.20
2022-11-30T03:26:39.139Z,26.60
2022-11-30T03:27:39.123Z,24.70
2022-11-30T03:28:40.129Z,27.20
2022-11-30T03:29:39.106Z,27.10
2022-11-30T03:30:39.146Z,29.50
2022-11-30T03:31:39.099Z,27.00
2022-11-30T03:32:39.115Z,27.50
2022-11-30T03:33:39.080Z,28.20
2022-11-30T03:34:39.067Z,29.40
2022-11-30T03:35:39.084Z,28.30
2022-11-30T03:36:39.059Z,27.60
2022-11-30T03:37:39.064Z,30.00
2022-11-30T03:38:39.043Z,29.20
2022-11-30T03:39:39.041Z,30.50
2022-11-30T03:40:39.070Z,28.90
2022-11-30T03:41:39.013Z,29.40
2022-11-30T03:42:39.012Z,31.50
2022-11-30T03:43:39.008Z,28.90
2022-11-30T03:44:38.993Z,27.60
2022-11-30T03:45:39.016Z,28.00
2022-11-30T03:46:39.063Z,29.50
2022-11-30T03:47:38.972Z,31.00
2022-11-30T03:48:38.965Z,33.00
2022-11-30T03:49:38.955Z,33.70
2022-11-30T03:50:38.971Z,34.10
2022-11-30T03:51:38.957Z,36.30
2022-11-30T03:52:38.935Z,31.90
2022-11-30T03:53:38.921Z,32.00
2022-11-30T03:54:38.920Z,31.70
2022-11-30T03:55:38.932Z,32.00
2022-11-30T03:56:38.910Z,27.10
2022-11-30T03:57:38.904Z,27.00
2022-11-30T03:58:38.895Z,28.70
2022-11-30T03:59:38.883Z,32.90
2022-11-30T04:00:38.901Z,27.10
2022-11-30T04:01:38.914Z,32.50
2022-11-30T04:02:44.333Z,33.70
2022-11-30T04:03:40.853Z,29.80
2022-11-30T04:04:38.849Z,26.10
2022-11-30T04:05:38.882Z,29.60
2022-11-30T04:06:38.839Z,27.60
2022-11-30T04:07:38.867Z,27.80
2022-11-30T04:08:38.818Z,26.60
2022-11-30T04:09:38.819Z,26.70
2022-11-30T04:10:38.836Z,27.40
2022-11-30T04:11:38.794Z,28.00
2022-11-30T04:12:38.782Z,26.80
2022-11-30T04:13:38.772Z,25.40
2022-11-30T04:14:38.775Z,24.90
2022-11-30T04:15:38.979Z,26.70
2022-11-30T04:16:38.748Z,27.10
2022-11-30T04:17:38.752Z,26.60
2022-11-30T04:18:38.749Z,23.50
2022-11-30T04:19:38.728Z,24.90
2022-11-30T04:20:40.570Z,23.80
2022-11-30T04:21:39.711Z,25.10
2022-11-30T04:22:38.712Z,25.90
2022-11-30T04:23:38.697Z,25.00
2022-11-30T04:24:38.698Z,27.50
2022-11-30T04:25:38.715Z,26.20
2022-11-30T04:26:38.668Z,26.30
2022-11-30T04:27:38.667Z,25.60
2022-11-30T04:28:38.657Z,26.20
2022-11-30T04:29:38.656Z,24.90
2022-11-30T04:30:38.670Z,22.60
2022-11-30T04:31:38.678Z,24.80
2022-11-30T04:32:38.633Z,25.80
2022-11-30T04:33:38.625Z,25.60
2022-11-30T04:34:38.623Z,27.30
2022-11-30T04:35:38.631Z,25.90
2022-11-30T04:36:38.604Z,25.50
2022-11-30T04:37:38.590Z,29.00
2022-11-30T04:38:38.611Z,27.40
2022-11-30T04:39:38.570Z,30.50
2022-11-30T04:40:38.604Z,25.70
2022-11-30T04:41:38.554Z,29.60
2022-11-30T04:42:38.546Z,26.80
2022-11-30T04:43:38.551Z,27.50
2022-11-30T04:44:38.538Z,26.70
2022-11-30T04:45:38.560Z,26.40
2022-11-30T04:46:38.676Z,27.00
2022-11-30T04:47:38.510Z,26.90
2022-11-30T04:48:38.542Z,27.40
2022-11-30T04:49:38.501Z,26.50
2022-11-30T04:50:38.519Z,24.10
2022-11-30T04:51:38.494Z,25.10
2022-11-30T04:52:38.478Z,26.30
2022-11-30T04:53:38.476Z,26.80
2022-11-30T04:54:38.467Z,29.90
2022-11-30T04:55:38.487Z,27.10
2022-11-30T04:56:38.456Z,29.60
2022-11-30T04:57:38.434Z,27.90
2022-11-30T04:58:38.444Z,28.10
2022-11-30T04:59:38.423Z,26.60
2022-11-30T05:00:38.441Z,27.10
2022-11-30T05:01:38.436Z,27.50
2022-11-30T05:02:38.399Z,28.10
2022-11-30T05:03:38.397Z,27.60
2022-11-30T05:04:38.420Z,25.30
2022-11-30T05:05:38.468Z,28.30
2022-11-30T05:06:38.371Z,30.30
2022-11-30T05:07:38.402Z,28.70
2022-11-30T05:08:38.360Z,26.40
2022-11-30T05:09:38.349Z,28.10
2022-11-30T05:10:38.363Z,27.20
2022-11-30T05:11:38.334Z,26.70
2022-11-30T05:12:38.321Z,29.30
2022-11-30T05:13:38.371Z,26.40
2022-11-30T05:14:38.313Z,29.50
2022-11-30T05:15:38.324Z,27.40
2022-11-30T05:16:38.318Z,30.50
2022-11-30T05:17:38.287Z,27.90
2022-11-30T05:18:38.286Z,32.50
2022-11-30T05:19:38.268Z,29.80
2022-11-30T05:20:38.294Z,27.00
2022-11-30T05:21:42.645Z,30.20
2022-11-30T05:22:40.239Z,32.70
2022-11-30T05:23:38.232Z,30.40
2022-11-30T05:24:38.224Z,31.00
2022-11-30T05:25:38.240Z,28.70
2022-11-30T05:26:38.211Z,30.70
2022-11-30T05:27:38.205Z,29.70
2022-11-30T05:28:38.196Z,29.20
2022-11-30T05:29:38.186Z,24.80
2022-11-30T05:30:38.215Z,25.40
2022-11-30T05:31:38.241Z,26.60
2022-11-30T05:32:38.165Z,31.00
2022-11-30T05:33:38.173Z,27.10
2022-11-30T05:34:50.038Z,24.00
2022-11-30T05:35:40.170Z,30.10
2022-11-30T05:36:38.133Z,28.90
2022-11-30T05:37:38.128Z,28.60
2022-11-30T05:38:38.117Z,29.40
2022-11-30T05:39:39.727Z,25.60
2022-11-30T05:40:38.130Z,28.70
2022-11-30T05:41:38.094Z,28.80
2022-11-30T05:42:38.087Z,29.40
2022-11-30T05:43:38.072Z,27.80
2022-11-30T05:44:39.073Z,26.30
2022-11-30T05:45:38.069Z,28.70
2022-11-30T05:46:40.959Z,27.50
2022-11-30T05:47:39.052Z,27.70
2022-11-30T05:48:38.041Z,28.50
2022-11-30T05:49:38.030Z,26.30
2022-11-30T05:50:38.026Z,28.00
2022-11-30T05:51:38.041Z,27.20
2022-11-30T05:52:38.007Z,28.20
2022-11-30T05:53:37.997Z,29.10
2022-11-30T05:54:38.020Z,31.70
2022-11-30T05:55:37.982Z,28.00
2022-11-30T05:56:38.010Z,29.20
2022-11-30T05:57:37.975Z,27.60
2022-11-30T05:58:37.961Z,27.40
2022-11-30T05:59:37.963Z,25.70
2022-11-30T06:00:37.946Z,26.80
2022-11-30T06:01:37.993Z,26.60
2022-11-30T06:02:38.004Z,25.80
2022-11-30T06:03:37.926Z,25.10
2022-11-30T06:04:37.915Z,28.70
2022-11-30T06:05:37.906Z,25.70
2022-11-30T06:06:37.925Z,25.20
2022-11-30T06:07:37.919Z,25.70
2022-11-30T06:08:37.885Z,25.20
2022-11-30T06:09:37.901Z,26.00
2022-11-30T06:10:37.874Z,26.70
2022-11-30T06:11:37.896Z,22.70
2022-11-30T06:12:37.851Z,25.00
2022-11-30T06:13:37.843Z,24.10
2022-11-30T06:14:37.831Z,22.80
2022-11-30T06:15:37.873Z,23.90
2022-11-30T06:16:37.911Z,22.40
2022-11-30T06:17:37.820Z,25.30
2022-11-30T06:18:37.797Z,24.50
2022-11-30T06:19:37.799Z,25.90
2022-11-30T06:20:37.794Z,26.20
2022-11-30T06:21:37.805Z,26.30
2022-11-30T06:22:37.778Z,28.90
2022-11-30T06:23:37.763Z,27.40
2022-11-30T06:24:37.761Z,29.40
2022-11-30T06:25:37.757Z,28.50
2022-11-30T06:26:37.785Z,28.90
2022-11-30T06:27:37.739Z,28.40
2022-11-30T06:28:37.727Z,30.60
2022-11-30T06:29:37.724Z,32.40
2022-11-30T06:30:37.715Z,29.90
2022-11-30T06:31:37.767Z,30.60
2022-11-30T06:32:37.695Z,30.00
2022-11-30T06:33:37.707Z,31.40
2022-11-30T06:35:10.359Z,28.40
2022-11-30T06:35:37.674Z,28.60
2022-11-30T06:36:37.713Z,30.10
2022-11-30T06:37:37.661Z,27.10
2022-11-30T06:38:37.656Z,29.40
2022-11-30T06:40:04.673Z,29.10
2022-11-30T06:40:39.633Z,30.80
2022-11-30T06:41:37.662Z,31.50
2022-11-30T06:42:37.623Z,30.20
2022-11-30T06:43:37.614Z,29.00
2022-11-30T06:44:37.606Z,30.90
2022-11-30T06:45:37.634Z,30.60
2022-11-30T06:46:37.625Z,28.50
2022-11-30T06:47:37.583Z,30.30
2022-11-30T06:48:37.587Z,29.70
2022-11-30T06:49:37.572Z,31.40
2022-11-30T06:50:37.567Z,32.70
2022-11-30T06:51:37.583Z,31.30
2022-11-30T06:52:37.552Z,31.70
2022-11-30T06:53:37.762Z,35.30
2022-11-30T06:54:37.716Z,34.50
2022-11-30T06:55:37.683Z,30.60
2022-11-30T06:56:37.772Z,34.00
2022-11-30T06:57:37.514Z,29.80
2022-11-30T06:58:37.507Z,32.90
2022-11-30T06:59:37.500Z,30.30
2022-11-30T07:00:37.521Z,31.40
2022-11-30T07:01:37.512Z,30.10
2022-11-30T07:02:37.478Z,30.00
2022-11-30T07:03:37.471Z,31.90
2022-11-30T07:04:37.521Z,31.50
2022-11-30T07:05:37.458Z,32.20
2022-11-30T07:06:37.470Z,30.20
2022-11-30T07:07:37.482Z,30.60
2022-11-30T07:08:37.436Z,28.80
2022-11-30T07:09:37.426Z,30.20
2022-11-30T07:10:37.416Z,29.50
2022-11-30T07:11:37.439Z,32.00
2022-11-30T07:12:37.400Z,31.20
2022-11-30T07:13:37.393Z,30.90
2022-11-30T07:14:37.387Z,29.60
2022-11-30T07:15:37.382Z,27.80
2022-11-30T07:16:37.550Z,30.70
2022-11-30T07:17:37.364Z,32.10
2022-11-30T07:18:37.362Z,27.20
2022-11-30T07:19:37.347Z,29.00
2022-11-30T07:20:37.338Z,26.90
2022-11-30T07:21:37.352Z,31.40
2022-11-30T07:22:37.329Z,27.30
2022-11-30T07:23:37.503Z,28.90
2022-11-30T07:24:37.306Z,27.70
2022-11-30T07:25:37.302Z,30.80
2022-11-30T07:26:37.329Z,28.80
2022-11-30T07:27:37.284Z,26.50
2022-11-30T07:28:37.279Z,30.40
2022-11-30T07:29:37.268Z,28.70
2022-11-30T07:30:37.262Z,29.50
2022-11-30T07:31:37.379Z,28.20
2022-11-30T07:32:37.242Z,30.70
2022-11-30T07:33:37.245Z,30.10
2022-11-30T07:34:37.228Z,28.30
2022-11-30T07:35:37.222Z,26.90
2022-11-30T07:36:37.219Z,28.60
2022-11-30T07:37:37.235Z,29.00
2022-11-30T07:38:37.202Z,26.50
2022-11-30T07:39:37.195Z,26.90
2022-11-30T07:40:37.186Z,27.30
2022-11-30T07:41:37.186Z,24.90
2022-11-30T07:42:37.203Z,27.50
2022-11-30T07:43:37.165Z,24.70
2022-11-30T07:44:37.155Z,26.20
2022-11-30T07:45:37.200Z,24.50
2022-11-30T07:46:37.136Z,24.30
2022-11-30T07:47:37.159Z,26.40
2022-11-30T07:48:37.113Z,26.50
2022-11-30T07:49:38.116Z,26.80
2022-11-30T07:50:37.116Z,26.00
2022-11-30T07:51:37.119Z,26.00
2022-11-30T07:52:37.120Z,26.40
2022-11-30T07:53:37.083Z,24.90
2022-11-30T07:54:37.073Z,25.00
2022-11-30T07:55:37.077Z,23.90
2022-11-30T07:56:37.063Z,27.30
2022-11-30T07:57:37.080Z,25.90
2022-11-30T07:58:37.045Z,22.60
2022-11-30T07:59:37.040Z,23.40
2022-11-30T08:00:37.035Z,23.90
2022-11-30T08:01:37.105Z,25.30
2022-11-30T08:02:37.041Z,25.80
2022-11-30T08:03:37.481Z,25.10
2022-11-30T08:04:38.041Z,25.20
2022-11-30T08:05:36.996Z,25.10
2022-11-30T08:06:36.989Z,24.80
2022-11-30T08:07:37.020Z,26.00
2022-11-30T08:08:36.976Z,27.10
2022-11-30T08:09:36.965Z,26.40
2022-11-30T08:10:36.961Z,24.20
2022-11-30T08:11:36.950Z,25.80
2022-11-30T08:12:36.975Z,27.30
2022-11-30T08:13:36.934Z,26.10
2022-11-30T08:14:56.477Z,31.40
2022-11-30T08:15:39.179Z,34.40
2022-11-30T08:16:36.971Z,34.60
2022-11-30T08:17:36.929Z,32.10
2022-11-30T08:18:36.903Z,36.10
2022-11-30T08:19:36.887Z,34.30
2022-11-30T08:20:36.893Z,34.50
2022-11-30T08:21:36.872Z,34.90
2022-11-30T08:22:36.893Z,38.20
2022-11-30T08:23:36.961Z,40.60
2022-11-30T08:24:36.849Z,36.40
2022-11-30T08:25:36.850Z,36.10
2022-11-30T08:26:36.837Z,35.90
2022-11-30T08:27:36.864Z,38.70
2022-11-30T08:28:36.819Z,44.40
2022-11-30T08:29:36.817Z,43.30
2022-11-30T08:30:36.875Z,37.40
2022-11-30T08:31:36.862Z,35.20
2022-11-30T08:32:36.815Z,37.10
2022-11-30T08:33:36.787Z,38.40
2022-11-30T08:34:36.776Z,39.30
2022-11-30T08:35:36.765Z,49.00
2022-11-30T08:36:36.772Z,62.10
2022-11-30T08:37:36.836Z,57.90
2022-11-30T08:38:36.745Z,57.00
2022-11-30T08:39:36.734Z,49.20
2022-11-30T08:40:36.728Z,39.70
2022-11-30T08:41:36.720Z,40.80
2022-11-30T08:42:36.731Z,38.10
2022-11-30T08:43:36.699Z,36.70
2022-11-30T08:44:36.699Z,39.70
2022-11-30T08:45:36.692Z,38.90
2022-11-30T08:46:51.477Z,36.50
2022-11-30T08:47:38.762Z,37.90
2022-11-30T08:48:36.673Z,34.50
2022-11-30T08:49:36.651Z,34.50
2022-11-30T08:50:36.651Z,35.20
2022-11-30T08:52:00.760Z,37.30
2022-11-30T08:52:38.672Z,35.70
2022-11-30T08:53:36.630Z,37.20
2022-11-30T08:54:36.628Z,41.00
2022-11-30T08:55:36.616Z,37.70
2022-11-30T08:56:36.616Z,39.10
2022-11-30T08:57:36.634Z,38.70
2022-11-30T08:58:36.600Z,40.30
2022-11-30T08:59:36.597Z,38.00
2022-11-30T09:00:36.584Z,43.10
2022-11-30T09:01:36.573Z,62.80
2022-11-30T09:02:36.634Z,48.50
2022-11-30T09:03:36.566Z,44.10
2022-11-30T09:04:36.556Z,45.00
2022-11-30T09:05:36.554Z,42.00
2022-11-30T09:06:36.541Z,41.10
2022-11-30T09:07:36.563Z,43.50
2022-11-30T09:08:39.633Z,39.40
2022-11-30T09:09:37.520Z,38.00
2022-11-30T09:10:36.507Z,42.80
2022-11-30T09:11:36.503Z,40.00
2022-11-30T09:12:36.496Z,43.90
2022-11-30T09:13:36.517Z,43.70
2022-11-30T09:14:36.481Z,44.30
2022-11-30T09:15:36.523Z,51.60
2022-11-30T09:16:36.459Z,55.40
2022-11-30T09:17:36.456Z,66.10
2022-11-30T09:18:36.469Z,47.20
2022-11-30T09:19:36.441Z,41.40
2022-11-30T09:20:36.430Z,41.80
2022-11-30T09:21:36.422Z,39.40
2022-11-30T09:22:36.411Z,41.80
2022-11-30T09:23:36.432Z,42.50
2022-11-30T09:24:36.403Z,50.30
2022-11-30T09:25:36.397Z,39.90
2022-11-30T09:26:36.436Z,53.40
2022-11-30T09:27:36.391Z,65.70
2022-11-30T09:28:36.394Z,45.90
2022-11-30T09:29:36.358Z,43.80
2022-11-30T09:30:36.395Z,40.60
2022-11-30T09:31:36.344Z,41.60
2022-11-30T09:32:36.339Z,36.90
2022-11-30T09:33:36.357Z,37.40
2022-11-30T09:34:36.327Z,38.90
2022-11-30T09:35:36.320Z,37.90
2022-11-30T09:36:36.315Z,36.90
2022-11-30T09:37:36.296Z,35.90
2022-11-30T09:38:37.533Z,37.80
2022-11-30T09:39:36.297Z,39.50
2022-11-30T09:40:36.286Z,37.90
2022-11-30T09:41:36.282Z,38.10
2022-11-30T09:42:36.271Z,40.30
2022-11-30T09:43:36.292Z,44.80
2022-11-30T09:44:36.253Z,51.60
2022-11-30T09:45:36.250Z,47.90
2022-11-30T09:46:36.273Z,46.90
2022-11-30T09:47:36.241Z,41.40
2022-11-30T09:48:36.249Z,39.20
2022-11-30T09:49:36.213Z,39.50
2022-11-30T09:50:36.210Z,40.20
2022-11-30T09:51:36.204Z,36.10
2022-11-30T09:52:36.178Z,34.60
2022-11-30T09:53:37.215Z,37.90
2022-11-30T09:54:36.175Z,34.90
2022-11-30T09:55:36.188Z,34.50
2022-11-30T09:56:36.175Z,33.00
2022-11-30T09:57:36.159Z,37.60
2022-11-30T09:58:36.177Z,34.90
2022-11-30T09:59:36.144Z,34.10
2022-11-30T10:00:36.132Z,31.30
2022-11-30T10:01:37.787Z,34.20
2022-11-30T10:02:37.182Z,34.60
2022-11-30T10:03:36.168Z,34.60
2022-11-30T10:04:36.102Z,34.30
2022-11-30T10:05:36.092Z,35.80
2022-11-30T10:06:36.085Z,33.30
2022-11-30T10:07:36.129Z,34.30
2022-11-30T10:08:36.076Z,34.90
2022-11-30T10:09:36.087Z,30.90
2022-11-30T10:10:37.050Z,32.00
2022-11-30T10:11:36.055Z,32.70
2022-11-30T10:12:36.039Z,34.40
2022-11-30T10:13:36.033Z,31.20
2022-11-30T10:14:36.057Z,32.60
2022-11-30T10:15:36.131Z,38.40
2022-11-30T10:16:36.013Z,38.50
2022-11-30T10:17:35.999Z,34.30
2022-11-30T10:18:36.074Z,30.90
2022-11-30T10:19:36.024Z,35.50
2022-11-30T10:20:35.976Z,30.90
2022-11-30T10:21:35.967Z,37.70
2022-11-30T10:22:35.957Z,43.80
2022-11-30T10:23:35.948Z,32.50
2022-11-30T10:24:35.970Z,32.80
2022-11-30T10:25:35.938Z,36.60
2022-11-30T10:26:35.922Z,36.50
2022-11-30T10:27:35.918Z,33.20
2022-11-30T10:28:46.905Z,33.90
2022-11-30T10:29:37.934Z,33.00
2022-11-30T10:30:35.904Z,32.10
2022-11-30T10:31:35.912Z,33.20
2022-11-30T10:32:35.881Z,33.70
2022-11-30T10:33:38.642Z,35.00
2022-11-30T10:34:36.903Z,31.10
2022-11-30T10:35:35.861Z,34.10
2022-11-30T10:36:35.970Z,33.50
2022-11-30T10:37:35.840Z,33.90
2022-11-30T10:38:35.829Z,32.10
2022-11-30T10:39:35.831Z,32.20
2022-11-30T10:40:35.848Z,32.10
2022-11-30T10:41:35.806Z,29.60
2022-11-30T10:42:35.807Z,34.10
2022-11-30T10:43:35.806Z,32.10
2022-11-30T10:44:35.785Z,33.10
2022-11-30T10:45:35.812Z,45.70
2022-11-30T10:46:35.786Z,34.90
2022-11-30T10:47:35.768Z,34.10
2022-11-30T10:48:35.764Z,31.50
2022-11-30T10:49:35.751Z,33.20
2022-11-30T10:50:35.771Z,31.30
2022-11-30T10:51:35.749Z,31.40
2022-11-30T10:52:35.724Z,32.10
2022-11-30T10:53:35.716Z,31.40
2022-11-30T10:54:35.713Z,33.20
2022-11-30T10:55:35.727Z,30.20
2022-11-30T10:56:35.699Z,33.50
2022-11-30T10:57:35.686Z,30.50
2022-11-30T10:58:35.680Z,30.20
2022-11-30T10:59:35.670Z,29.30
2022-11-30T11:00:35.690Z,28.90
2022-11-30T11:01:35.744Z,29.70
2022-11-30T11:02:35.687Z,28.40
2022-11-30T11:03:35.639Z,30.50
2022-11-30T11:04:35.633Z,29.80
2022-11-30T11:05:35.653Z,29.10
2022-11-30T11:06:35.657Z,31.20
2022-11-30T11:07:35.675Z,27.20
2022-11-30T11:08:35.605Z,30.70
2022-11-30T11:09:35.598Z,30.50
2022-11-30T11:10:35.617Z,32.90
2022-11-30T11:11:35.589Z,30.90
2022-11-30T11:12:35.571Z,34.80
2022-11-30T11:13:35.564Z,33.80
2022-11-30T11:14:38.139Z,34.60
2022-11-30T11:15:36.682Z,31.90
2022-11-30T11:16:35.552Z,29.60
2022-11-30T11:17:35.536Z,31.50
2022-11-30T11:18:35.536Z,31.70
2022-11-30T11:19:35.519Z,28.70
2022-11-30T11:20:35.543Z,30.50
2022-11-30T11:21:35.511Z,31.00
2022-11-30T11:22:35.504Z,29.40
2022-11-30T11:23:35.498Z,31.00
2022-11-30T11:24:35.503Z,28.70
2022-11-30T11:25:35.497Z,29.90
2022-11-30T11:26:35.463Z,28.90
2022-11-30T11:27:38.670Z,30.70
2022-11-30T11:28:36.443Z,29.70
2022-11-30T11:29:35.440Z,29.50
2022-11-30T11:30:35.477Z,28.20
2022-11-30T11:31:35.484Z,27.40
2022-11-30T11:32:35.420Z,28.10
2022-11-30T11:33:35.405Z,29.80
2022-11-30T11:34:35.408Z,28.70
2022-11-30T11:35:35.424Z,28.00
2022-11-30T11:36:35.389Z,27.20
2022-11-30T11:37:35.382Z,29.00
2022-11-30T11:38:35.376Z,27.70
2022-11-30T11:39:35.368Z,25.40
2022-11-30T11:40:35.390Z,27.40
2022-11-30T11:41:35.342Z,26.50
2022-11-30T11:42:36.346Z,27.30
2022-11-30T11:43:35.342Z,27.00
2022-11-30T11:44:35.331Z,28.70
2022-11-30T11:45:35.332Z,28.10
2022-11-30T11:46:35.407Z,28.50
2022-11-30T11:47:35.310Z,27.00
2022-11-30T11:48:35.304Z,27.80
2022-11-30T11:49:35.307Z,27.70
2022-11-30T11:51:06.271Z,27.50
2022-11-30T11:51:37.533Z,29.10
2022-11-30T11:52:35.273Z,27.70
2022-11-30T11:53:39.386Z,28.30
2022-11-30T11:54:37.257Z,27.80
2022-11-30T11:55:35.252Z,27.20
2022-11-30T11:56:35.266Z,27.70
2022-11-30T11:57:35.228Z,29.50
2022-11-30T11:58:35.231Z,28.40
2022-11-30T11:59:35.216Z,30.90
2022-11-30T12:00:35.206Z,30.10
2022-11-30T12:01:40.436Z,29.00
2022-11-30T12:02:37.239Z,29.00
2022-11-30T12:03:35.177Z,28.50
2022-11-30T12:04:36.253Z,29.20
2022-11-30T12:05:35.169Z,30.90
2022-11-30T12:06:35.191Z,28.90
2022-11-30T12:07:35.214Z,31.30
2022-11-30T12:08:35.151Z,30.60
2022-11-30T12:09:35.134Z,32.10
2022-11-30T12:10:52.597Z,31.40
2022-11-30T12:11:37.536Z,29.80
2022-11-30T12:12:35.122Z,29.70
2022-11-30T12:13:35.108Z,30.00
2022-11-30T12:14:35.105Z,29.50
2022-11-30T12:15:35.088Z,32.40
2022-11-30T12:16:35.175Z,32.50
2022-11-30T12:17:35.085Z,32.50
2022-11-30T12:18:35.066Z,29.70
2022-11-30T12:19:35.835Z,29.00
2022-11-30T12:20:35.054Z,30.30
2022-11-30T12:21:35.078Z,29.50
2022-11-30T12:22:35.044Z,29.50
2022-11-30T12:23:35.040Z,30.90
2022-11-30T12:24:35.014Z,30.10
2022-11-30T12:25:36.015Z,28.50
2022-11-30T12:26:35.036Z,30.00
2022-11-30T12:27:35.001Z,32.50
2022-11-30T12:28:34.996Z,32.10
2022-11-30T12:29:34.985Z,31.60
2022-11-30T12:30:34.980Z,32.30
2022-11-30T12:31:35.166Z,34.00
2022-11-30T12:32:34.992Z,31.60
2022-11-30T12:33:34.964Z,31.00
2022-11-30T12:35:07.451Z,30.80
2022-11-30T12:35:34.947Z,32.70
2022-11-30T12:36:34.960Z,30.20
2022-11-30T12:37:34.964Z,31.60
2022-11-30T12:38:34.913Z,32.10
2022-11-30T12:39:34.945Z,29.30
2022-11-30T12:40:34.895Z,29.10
2022-11-30T12:41:34.896Z,31.80
2022-11-30T12:42:34.911Z,30.90
2022-11-30T12:43:34.873Z,31.40
2022-11-30T12:44:41.641Z,30.60
2022-11-30T12:45:36.870Z,33.80
2022-11-30T12:46:34.928Z,30.90
2022-11-30T12:47:34.868Z,31.50
2022-11-30T12:48:34.916Z,31.60
2022-11-30T12:49:34.842Z,30.60
2022-11-30T12:50:34.829Z,30.20
2022-11-30T12:51:34.806Z,31.30
2022-11-30T12:52:34.829Z,31.10